NCAR-RAP Real-Time Weather Data

Output produced by METARs form (12 May 2021  10:38 UTC)
found at http://weather.rap.ucar.edu/surface/
 
KMCI 120953Z 03005KT 10SM OVC130 09/04 A3038 RMK AO2 SLP286 T00940044
KMCI 120853Z 05006KT 10SM OVC130 10/04 A3036 RMK AO2 SLP278 T01000044 53005
KMCI 120753Z 04005KT 10SM OVC130 11/05 A3034 RMK AO2 SLP273 T01060050
KMCI 120653Z 04005KT 10SM OVC130 11/06 A3035 RMK AO2 SLP275 T01060056
KMCI 120553Z 06005KT 10SM OVC130 11/05 A3034 RMK AO2 SLP273 T01110050 10150 20100 401670094 51009
KMCI 120453Z 05005KT 10SM OVC130 10/05 A3034 RMK AO2 SLP271 T01000050
KMCI 120353Z 10007KT 10SM OVC130 13/04 A3034 RMK AO2 SLP271 T01330044
KMCI 120253Z 09006KT 10SM CLR 13/04 A3032 RMK AO2 SLP265 T01330044 53016
KMCI 120153Z 09007KT 10SM BKN120 14/04 A3030 RMK AO2 SLP258 T01390044
KMCI 120053Z 08006KT 10SM FEW080 OVC120 14/05 A3028 RMK AO2 SLP251 T01440050
KMCI 112353Z 07007KT 10SM OVC080 15/06 A3027 RMK AO2 SLP248 T01500056 10167 20150 53006
KMCI 112253Z 08009KT 10SM OVC070 15/05 A3025 RMK AO2 SLP243 T01500050
KMCI 112153Z 09008KT 10SM FEW040 BKN050 OVC070 16/05 A3023 RMK AO2 SLP236 T01560050
KMCI 112053Z 09010KT 9SM FEW040 BKN065 OVC100 16/05 A3025 RMK AO2 SLP241 T01610050 53001